ENEV/EVE METAR and TAF weather

Enter ICAO airport designator
Station Type Date Time Source
ENEV METAR 2020/07/07 23:50 UTC NOAA

ENEV 072350Z AUTO 21005KT 9999 OVC036/// 10/05 Q1003 RMK WIND 1400FT 23010KT


Station Type Date Time Source
ENEV Decoded METAR 2020/07/07 23:50 UTC NOAA

Evenes, Norway (ENEV) 68-31N 016-41E 26M
Jul 07, 2020 - 07:50 PM EDT / 2020.07.07 2350 UTC
Wind: from the SSW (210 degrees) at 6 MPH (5 KT):0
Visibility: greater than 7 mile(s):0
Sky conditions: overcast
Temperature: 50 F (10 C)
Dew Point: 41 F (5 C)
Relative Humidity: 71%
Pressure (altimeter): 29.62 in. Hg (1003 hPa)
ob: ENEV 072350Z AUTO 21005KT 9999 OVC036/// 10/05 Q1003 RMK WIND 1400FT 23010KT
cycle: 0

Station Type Date Time Source
ENEV TAF 2010/02/05 07:50 UTC NOAA

METAR ENEV 050750Z 14007KT 9999 FEW040 SCT055 M04/M09 Q1019

Example: see airport list